Pensacola Regional Airport
KPNS : rendu visible

Aérodrome :











RETROUVEZ-NOUS SUR...

 
LOGIN :

S'inscrire | Disclaimer

   EN    FR    IT 

 









Légende :    VFR   VFR Marginal   IFR   IFR Intensif   IFR Très Intensif
Visi : 
Plafond : 
>= 8 km
>= 3000ft
5 à 8 km
1000 à 3000 ft
1500m à 5 km
500 à 1000 ft
800 à 1500m
200 à 500 ft
< 800m
< 200 ft
Symboles :   Orages  Brouillard  Fortes neiges  Fortes précipitations  Vent > 20 kt






- Altitude de l'aérodrome : 121 ft
- Code IATA : PNS


KPNS - Pensacola Regional

DERNIER METAR :
  • 100830Z AUTO 18007KT 5SM BR BKN007 BKN070 21/21 A3000 RMK AO2 T02110211

METARs EXPIRÉS :
  • 100818Z AUTO 18006KT 4SM BR SCT005 BKN070 21/21 A3000 RMK AO2 T02060206
  • 100753Z AUTO 19006KT 5SM BR CLR 21/21 A3000 RMK AO2 SLP161 T02060206
  • 100732Z AUTO 18006KT 4SM BR SCT007 21/21 A3001 RMK AO2 T02060206
  • 100653Z AUTO 17006KT 5SM BR OVC005 21/21 A3000 RMK AO2 CIG 005V008 SLP162 T02060206
  • 100639Z AUTO 18006KT 6SM BR BKN005 21/21 A3001 RMK AO2 CIG 005V008 T02060206
  • 100630Z AUTO 17006KT 5SM BR SCT009 21/21 A3001 RMK AO2 T02060206
  • 100553Z AUTO 16005KT 4SM BR BKN060 21/21 A3001 RMK AO2 SLP164 T02060206 10211 20194 402440161 58002

TAF KPNS
Valide du 10 à 07h jusqu'au 11 à 06h UTC


100647Z 1007/1106 18006KT 6SM BR BKN005
FM100900 18006KT 3SM BR OVC005
TEMPO 1009/1013 1/2SM FG VV003
FM101400 18007KT 3SM BR VCSH OVC010
FM101800 18007KT P6SM SHRA OVC015
FM110000 35014KT P6SM SHRA OVC012



MET'MAP, la Météo Aéronautique d'un coup d'oeil ! - Copyright ORBIFLY Décembre 2007 - Disclaimer

ORBIFLY MET'MAP TEAM :

Programmation & Développement : Alexandra Zaïnal
Sur une idée originale de : Baudouin d'Aumeries
Assistance à la programmation : Marc-Olivier Méhu
Soutien technique & logistique : Manuel Goepfert

Contact : metmap@orbifly.com




SOURCES & CREDITS :

   NOAA       Earth
Advisory